sensor_id;sensor_type;location;lat;lon;timestamp;pressure;altitude;pressure_sealevel;temperature;humidity
5812;BME280;2932;52.400;9.558;2023-05-11T00:00:12;100766.59;;;18.77;78.02
5812;BME280;2932;52.400;9.558;2023-05-11T00:02:38;100768.56;;;18.73;78.05
5812;BME280;2932;52.400;9.558;2023-05-11T00:05:03;100772.56;;;18.72;77.71
5812;BME280;2932;52.400;9.558;2023-05-11T00:07:28;100762.56;;;18.71;78.01
5812;BME280;2932;52.400;9.558;2023-05-11T00:09:54;100765.38;;;18.75;77.59
5812;BME280;2932;52.400;9.558;2023-05-11T00:12:19;100766.56;;;18.74;77.36
5812;BME280;2932;52.400;9.558;2023-05-11T00:14:44;100765.78;;;18.77;77.15
5812;BME280;2932;52.400;9.558;2023-05-11T00:17:10;100762.97;;;18.70;77.40
5812;BME280;2932;52.400;9.558;2023-05-11T00:19:36;100768.59;;;19.05;76.05
5812;BME280;2932;52.400;9.558;2023-05-11T00:22:01;100760.16;;;19.19;75.21
5812;BME280;2932;52.400;9.558;2023-05-11T00:24:26;100765.41;;;19.17;75.41
5812;BME280;2932;52.400;9.558;2023-05-11T00:26:52;100769.81;;;19.15;75.08
5812;BME280;2932;52.400;9.558;2023-05-11T00:29:17;100760.97;;;19.20;75.54
5812;BME280;2932;52.400;9.558;2023-05-11T00:31:43;100754.56;;;19.02;75.57
5812;BME280;2932;52.400;9.558;2023-05-11T00:34:15;100761.38;;;19.01;75.73
5812;BME280;2932;52.400;9.558;2023-05-11T00:36:41;100764.19;;;19.01;75.58
5812;BME280;2932;52.400;9.558;2023-05-11T00:39:08;100761.78;;;19.03;75.58
5812;BME280;2932;52.400;9.558;2023-05-11T00:41:33;100764.19;;;19.08;75.59
5812;BME280;2932;52.400;9.558;2023-05-11T00:43:59;100761.78;;;19.03;75.31
5812;BME280;2932;52.400;9.558;2023-05-11T00:46:24;100768.97;;;18.96;75.20
5812;BME280;2932;52.400;9.558;2023-05-11T00:48:51;100762.16;;;18.69;76.34
5812;BME280;2932;52.400;9.558;2023-05-11T00:51:17;100763.75;;;18.70;76.25
5812;BME280;2932;52.400;9.558;2023-05-11T00:53:42;100768.56;;;18.66;76.30
5812;BME280;2932;52.400;9.558;2023-05-11T00:56:08;100766.56;;;18.91;75.49
5812;BME280;2932;52.400;9.558;2023-05-11T00:58:34;100764.19;;;19.15;74.49
5812;BME280;2932;52.400;9.558;2023-05-11T01:01:00;100773.00;;;19.10;74.83
5812;BME280;2932;52.400;9.558;2023-05-11T01:03:25;100762.59;;;19.10;74.59
5812;BME280;2932;52.400;9.558;2023-05-11T01:06:00;100764.97;;;18.87;75.54
5812;BME280;2932;52.400;9.558;2023-05-11T01:13:30;100771.00;;;19.03;74.41
5812;BME280;2932;52.400;9.558;2023-05-11T01:15:57;100772.19;;;19.06;74.67
5812;BME280;2932;52.400;9.558;2023-05-11T01:18:27;100771.41;;;19.16;74.13
5812;BME280;2932;52.400;9.558;2023-05-11T01:20:57;100767.41;;;19.17;74.06
5812;BME280;2932;52.400;9.558;2023-05-11T01:29:12;100762.97;;;18.94;74.36
5812;BME280;2932;52.400;9.558;2023-05-11T01:31:46;100770.59;;;18.97;74.74
5812;BME280;2932;52.400;9.558;2023-05-11T01:34:16;100771.38;;;18.87;74.29
5812;BME280;2932;52.400;9.558;2023-05-11T01:37:09;100770.19;;;18.95;74.06
5812;BME280;2932;52.400;9.558;2023-05-11T01:39:54;100772.19;;;18.95;73.67
5812;BME280;2932;52.400;9.558;2023-05-11T01:42:29;100777.41;;;18.96;73.83
5812;BME280;2932;52.400;9.558;2023-05-11T01:44:56;100769.78;;;18.93;73.54
5812;BME280;2932;52.400;9.558;2023-05-11T01:47:25;100776.19;;;18.97;73.20
5812;BME280;2932;52.400;9.558;2023-05-11T01:49:53;100777.38;;;18.86;73.90
5812;BME280;2932;52.400;9.558;2023-05-11T01:52:20;100782.16;;;18.64;74.10
5812;BME280;2932;52.400;9.558;2023-05-11T01:54:48;100776.16;;;18.65;74.08
5812;BME280;2932;52.400;9.558;2023-05-11T01:57:16;100782.97;;;18.68;73.66
5812;BME280;2932;52.400;9.558;2023-05-11T01:59:42;100784.19;;;18.67;73.81
5812;BME280;2932;52.400;9.558;2023-05-11T02:02:09;100777.38;;;18.68;74.20
5812;BME280;2932;52.400;9.558;2023-05-11T02:04:37;100788.16;;;18.62;73.91
5812;BME280;2932;52.400;9.558;2023-05-11T02:07:04;100780.94;;;18.61;74.11
5812;BME280;2932;52.400;9.558;2023-05-11T02:09:31;100780.56;;;18.67;74.02
5812;BME280;2932;52.400;9.558;2023-05-11T02:11:59;100784.19;;;18.74;73.31
5812;BME280;2932;52.400;9.558;2023-05-11T02:14:27;100790.97;;;18.66;73.71
5812;BME280;2932;52.400;9.558;2023-05-11T02:16:55;100780.56;;;18.70;73.57
5812;BME280;2932;52.400;9.558;2023-05-11T02:19:21;100787.38;;;18.69;73.13
5812;BME280;2932;52.400;9.558;2023-05-11T02:21:47;100788.56;;;18.61;73.30
5812;BME280;2932;52.400;9.558;2023-05-11T02:24:15;100790.56;;;18.64;73.53
5812;BME280;2932;52.400;9.558;2023-05-11T02:26:42;100792.97;;;18.65;73.37
5812;BME280;2932;52.400;9.558;2023-05-11T02:29:07;100785.69;;;18.47;74.06
5812;BME280;2932;52.400;9.558;2023-05-11T02:31:40;100796.13;;;18.57;73.87
5812;BME280;2932;52.400;9.558;2023-05-11T02:34:10;100786.91;;;18.53;74.14
5812;BME280;2932;52.400;9.558;2023-05-11T02:36:43;100787.28;;;18.44;74.37
5812;BME280;2932;52.400;9.558;2023-05-11T02:39:11;100787.69;;;18.46;74.20
5812;BME280;2932;52.400;9.558;2023-05-11T02:41:42;100785.28;;;18.45;74.91
5812;BME280;2932;52.400;9.558;2023-05-11T02:44:11;100793.31;;;18.57;74.19
5812;BME280;2932;52.400;9.558;2023-05-11T02:46:39;100790.50;;;18.57;74.24
5812;BME280;2932;52.400;9.558;2023-05-11T02:49:07;100791.53;;;18.06;75.80
5812;BME280;2932;52.400;9.558;2023-05-11T02:51:38;100790.84;;;18.30;74.90
5812;BME280;2932;52.400;9.558;2023-05-11T02:54:06;100789.25;;;18.33;74.75
5812;BME280;2932;52.400;9.558;2023-05-11T02:56:35;100795.28;;;18.49;74.05
5812;BME280;2932;52.400;9.558;2023-05-11T02:59:01;100792.91;;;18.51;74.03
5812;BME280;2932;52.400;9.558;2023-05-11T03:01:27;100792.06;;;18.44;73.80
5812;BME280;2932;52.400;9.558;2023-05-11T03:03:53;100789.31;;;18.54;73.11
5812;BME280;2932;52.400;9.558;2023-05-11T03:06:18;100786.88;;;18.39;73.59
5812;BME280;2932;52.400;9.558;2023-05-11T03:08:43;100789.59;;;18.17;74.74
5812;BME280;2932;52.400;9.558;2023-05-11T03:11:09;100792.97;;;18.62;73.36
5812;BME280;2932;52.400;9.558;2023-05-11T03:13:36;100797.78;;;18.69;73.00
5812;BME280;2932;52.400;9.558;2023-05-11T03:16:03;100796.19;;;18.64;72.92
5812;BME280;2932;52.400;9.558;2023-05-11T03:18:30;100797.34;;;18.59;72.84
5812;BME280;2932;52.400;9.558;2023-05-11T03:20:58;100792.50;;;18.53;73.58
5812;BME280;2932;52.400;9.558;2023-05-11T03:23:25;100798.56;;;18.62;73.46
5812;BME280;2932;52.400;9.558;2023-05-11T03:25:51;100794.56;;;18.63;73.40
5812;BME280;2932;52.400;9.558;2023-05-11T03:28:17;100798.16;;;18.60;74.09
5812;BME280;2932;52.400;9.558;2023-05-11T03:30:44;100794.50;;;18.52;73.95
5812;BME280;2932;52.400;9.558;2023-05-11T03:33:10;100798.00;;;18.21;75.20
5812;BME280;2932;52.400;9.558;2023-05-11T03:35:36;100791.19;;;18.18;75.49
5812;BME280;2932;52.400;9.558;2023-05-11T03:38:05;100795.53;;;18.09;75.74
5812;BME280;2932;52.400;9.558;2023-05-11T03:40:31;100792.69;;;18.02;75.50
5812;BME280;2932;52.400;9.558;2023-05-11T03:43:01;100791.53;;;18.06;75.75
5812;BME280;2932;52.400;9.558;2023-05-11T03:45:28;100790.75;;;18.13;75.98
5812;BME280;2932;52.400;9.558;2023-05-11T03:47:56;100786.34;;;18.08;76.01
5812;BME280;2932;52.400;9.558;2023-05-11T03:50:21;100787.19;;;18.19;75.53
5812;BME280;2932;52.400;9.558;2023-05-11T03:52:48;100790.81;;;18.23;75.63
5812;BME280;2932;52.400;9.558;2023-05-11T03:55:13;100789.69;;;18.39;75.15
5812;BME280;2932;52.400;9.558;2023-05-11T03:57:39;100786.44;;;18.26;75.52
5812;BME280;2932;52.400;9.558;2023-05-11T04:00:05;100788.47;;;18.43;75.02
5812;BME280;2932;52.400;9.558;2023-05-11T04:02:33;100791.72;;;18.56;74.81
5812;BME280;2932;52.400;9.558;2023-05-11T04:04:58;100784.59;;;18.73;74.24
5812;BME280;2932;52.400;9.558;2023-05-11T04:07:24;100786.81;;;18.24;75.05
5812;BME280;2932;52.400;9.558;2023-05-11T04:09:49;100791.53;;;18.10;75.80
5812;BME280;2932;52.400;9.558;2023-05-11T04:12:15;100790.47;;;18.32;75.17
5812;BME280;2932;52.400;9.558;2023-05-11T04:14:40;100795.94;;;18.11;75.92
5812;BME280;2932;52.400;9.558;2023-05-11T04:17:05;100792.75;;;18.09;75.86
5812;BME280;2932;52.400;9.558;2023-05-11T04:19:31;100792.72;;;18.05;75.95
5812;BME280;2932;52.400;9.558;2023-05-11T04:21:56;100788.31;;;17.97;76.46
5812;BME280;2932;52.400;9.558;2023-05-11T04:24:21;100790.41;;;18.21;76.08
5812;BME280;2932;52.400;9.558;2023-05-11T04:26:47;100792.84;;;18.30;75.75
5812;BME280;2932;52.400;9.558;2023-05-11T04:29:12;100794.78;;;18.19;75.43
5812;BME280;2932;52.400;9.558;2023-05-11T04:31:37;100787.69;;;18.53;74.75
5812;BME280;2932;52.400;9.558;2023-05-11T04:34:05;100794.59;;;18.74;74.14
5812;BME280;2932;52.400;9.558;2023-05-11T04:36:31;100787.38;;;18.65;73.85
5812;BME280;2932;52.400;9.558;2023-05-11T04:38:57;100788.91;;;18.59;74.00
5812;BME280;2932;52.400;9.558;2023-05-11T04:41:22;100799.78;;;18.68;74.42
5812;BME280;2932;52.400;9.558;2023-05-11T04:43:48;100803.44;;;18.79;74.31
5812;BME280;2932;52.400;9.558;2023-05-11T04:46:13;100799.41;;;18.77;73.90
5812;BME280;2932;52.400;9.558;2023-05-11T04:48:39;100797.41;;;18.81;74.25
5812;BME280;2932;52.400;9.558;2023-05-11T04:51:05;100792.59;;;18.81;74.17
5812;BME280;2932;52.400;9.558;2023-05-11T04:53:30;100800.59;;;18.72;73.93
5812;BME280;2932;52.400;9.558;2023-05-11T04:55:55;100803.00;;;18.70;74.17
5812;BME280;2932;52.400;9.558;2023-05-11T04:58:21;100795.41;;;18.85;73.94
5812;BME280;2932;52.400;9.558;2023-05-11T05:00:46;100801.41;;;18.80;74.05
5812;BME280;2932;52.400;9.558;2023-05-11T05:03:12;100801.00;;;18.71;74.12
5812;BME280;2932;52.400;9.558;2023-05-11T05:05:37;100802.53;;;18.57;74.72
5812;BME280;2932;52.400;9.558;2023-05-11T05:08:02;100805.38;;;18.61;74.90
5812;BME280;2932;52.400;9.558;2023-05-11T05:10:28;100803.78;;;18.67;75.13
5812;BME280;2932;52.400;9.558;2023-05-11T05:12:53;100804.97;;;18.62;74.90
5812;BME280;2932;52.400;9.558;2023-05-11T05:15:18;100813.03;;;18.78;74.34
5812;BME280;2932;52.400;9.558;2023-05-11T05:17:44;100807.03;;;18.76;74.19
5812;BME280;2932;52.400;9.558;2023-05-11T05:20:09;100815.81;;;18.85;73.96
5812;BME280;2932;52.400;9.558;2023-05-11T05:22:35;100813.03;;;18.85;74.48
5812;BME280;2932;52.400;9.558;2023-05-11T05:25:00;100810.25;;;18.92;74.37
5812;BME280;2932;52.400;9.558;2023-05-11T05:27:25;100810.22;;;18.75;74.08
5812;BME280;2932;52.400;9.558;2023-05-11T05:29:51;100811.41;;;18.84;74.32
5812;BME280;2932;52.400;9.558;2023-05-11T05:32:16;100818.63;;;18.82;74.27
5812;BME280;2932;52.400;9.558;2023-05-11T05:34:42;100820.25;;;18.86;74.58
5812;BME280;2932;52.400;9.558;2023-05-11T05:37:07;100825.84;;;18.93;74.25
5812;BME280;2932;52.400;9.558;2023-05-11T05:39:33;100818.25;;;19.01;74.38
5812;BME280;2932;52.400;9.558;2023-05-11T05:41:58;100815.84;;;18.99;73.77
5812;BME280;2932;52.400;9.558;2023-05-11T05:44:23;100831.03;;;18.74;74.81
5812;BME280;2932;52.400;9.558;2023-05-11T05:46:49;100829.84;;;18.85;74.16
5812;BME280;2932;52.400;9.558;2023-05-11T05:49:14;100832.63;;;18.71;75.45
5812;BME280;2932;52.400;9.558;2023-05-11T05:51:40;100843.09;;;18.92;74.90
5812;BME280;2932;52.400;9.558;2023-05-11T05:54:05;100832.25;;;18.76;75.47
5812;BME280;2932;52.400;9.558;2023-05-11T05:56:31;100839.44;;;18.70;75.26
5812;BME280;2932;52.400;9.558;2023-05-11T05:58:59;100842.66;;;18.83;75.24
5812;BME280;2932;52.400;9.558;2023-05-11T06:01:24;100845.88;;;18.85;75.19
5812;BME280;2932;52.400;9.558;2023-05-11T06:03:50;100850.31;;;18.96;74.77
5812;BME280;2932;52.400;9.558;2023-05-11T06:06:16;100851.13;;;19.04;74.18
5812;BME280;2932;52.400;9.558;2023-05-11T06:08:41;100841.13;;;19.07;74.10
5812;BME280;2932;52.400;9.558;2023-05-11T06:11:07;100849.94;;;19.09;73.85
5812;BME280;2932;52.400;9.558;2023-05-11T06:13:32;100848.31;;;19.22;73.75
5812;BME280;2932;52.400;9.558;2023-05-11T06:15:58;100850.34;;;19.32;73.63
5812;BME280;2932;52.400;9.558;2023-05-11T06:18:23;100850.75;;;19.30;73.29
5812;BME280;2932;52.400;9.558;2023-05-11T06:20:48;100851.13;;;19.08;74.15
5812;BME280;2932;52.400;9.558;2023-05-11T06:23:14;100849.09;;;18.97;74.39
5812;BME280;2932;52.400;9.558;2023-05-11T06:25:39;100853.91;;;18.97;74.84
5812;BME280;2932;52.400;9.558;2023-05-11T06:28:05;100848.31;;;19.01;74.34
5812;BME280;2932;52.400;9.558;2023-05-11T06:30:30;100848.31;;;19.01;74.30
5812;BME280;2932;52.400;9.558;2023-05-11T06:32:56;100846.72;;;19.14;74.06
5812;BME280;2932;52.400;9.558;2023-05-11T06:35:21;100848.34;;;19.15;74.18
5812;BME280;2932;52.400;9.558;2023-05-11T06:37:47;100849.13;;;19.12;74.36
5812;BME280;2932;52.400;9.558;2023-05-11T06:40:12;100851.56;;;19.63;72.75
5812;BME280;2932;52.400;9.558;2023-05-11T06:42:40;100849.16;;;19.65;73.04
5812;BME280;2932;52.400;9.558;2023-05-11T06:45:06;100847.16;;;19.76;72.12
5812;BME280;2932;52.400;9.558;2023-05-11T06:47:31;100846.75;;;19.63;72.46
5812;BME280;2932;52.400;9.558;2023-05-11T06:49:57;100847.16;;;19.73;72.79
5812;BME280;2932;52.400;9.558;2023-05-11T06:52:22;100855.16;;;19.63;72.52
5812;BME280;2932;52.400;9.558;2023-05-11T06:54:47;100853.56;;;19.45;73.01
5812;BME280;2932;52.400;9.558;2023-05-11T06:57:13;100847.97;;;19.55;72.46
5812;BME280;2932;52.400;9.558;2023-05-11T06:59:38;100851.16;;;19.50;72.95
5812;BME280;2932;52.400;9.558;2023-05-11T07:02:03;100860.78;;;19.49;73.10
5812;BME280;2932;52.400;9.558;2023-05-11T07:04:29;100851.94;;;19.37;73.64
5812;BME280;2932;52.400;9.558;2023-05-11T07:06:54;100854.34;;;19.45;73.43
5812;BME280;2932;52.400;9.558;2023-05-11T07:09:19;100856.75;;;19.36;73.26
5812;BME280;2932;52.400;9.558;2023-05-11T07:11:45;100852.75;;;19.44;73.52
5812;BME280;2932;52.400;9.558;2023-05-11T07:14:10;100855.16;;;19.42;73.22
5812;BME280;2932;52.400;9.558;2023-05-11T07:16:36;100855.97;;;19.43;73.74
5812;BME280;2932;52.400;9.558;2023-05-11T07:19:05;100855.97;;;19.60;73.44
5812;BME280;2932;52.400;9.558;2023-05-11T07:21:33;100847.56;;;19.57;73.55
5812;BME280;2932;52.400;9.558;2023-05-11T07:23:58;100854.38;;;19.59;73.07
5812;BME280;2932;52.400;9.558;2023-05-11T07:26:24;100853.56;;;19.62;73.21
5812;BME280;2932;52.400;9.558;2023-05-11T07:28:49;100853.56;;;19.62;73.76
5812;BME280;2932;52.400;9.558;2023-05-11T07:31:14;100851.16;;;19.82;73.08
5812;BME280;2932;52.400;9.558;2023-05-11T07:33:40;100857.16;;;19.95;72.87
5812;BME280;2932;52.400;9.558;2023-05-11T07:36:06;100855.56;;;19.90;72.57
5812;BME280;2932;52.400;9.558;2023-05-11T07:38:31;100854.38;;;19.74;72.32
5812;BME280;2932;52.400;9.558;2023-05-11T07:40:57;100857.16;;;19.88;72.54
5812;BME280;2932;52.400;9.558;2023-05-11T07:43:22;100856.38;;;19.80;72.39
5812;BME280;2932;52.400;9.558;2023-05-11T07:45:47;100854.34;;;19.88;72.67
5812;BME280;2932;52.400;9.558;2023-05-11T07:48:12;100857.16;;;19.59;72.30
5812;BME280;2932;52.400;9.558;2023-05-11T07:50:38;100857.56;;;19.79;72.10
5812;BME280;2932;52.400;9.558;2023-05-11T07:53:03;100854.34;;;19.88;72.75
5812;BME280;2932;52.400;9.558;2023-05-11T07:55:29;100860.72;;;20.03;72.46
5812;BME280;2932;52.400;9.558;2023-05-11T07:57:55;100862.31;;;20.07;72.25
5812;BME280;2932;52.400;9.558;2023-05-11T08:00:20;100865.13;;;20.07;72.13
5812;BME280;2932;52.400;9.558;2023-05-11T08:02:46;100869.19;;;19.92;72.84
5812;BME280;2932;52.400;9.558;2023-05-11T08:05:12;100864.78;;;19.94;73.31
5812;BME280;2932;52.400;9.558;2023-05-11T08:07:37;100866.72;;;20.05;72.54
5812;BME280;2932;52.400;9.558;2023-05-11T08:10:03;100867.19;;;19.96;72.18
5812;BME280;2932;52.400;9.558;2023-05-11T08:12:29;100868.78;;;19.93;71.78
5812;BME280;2932;52.400;9.558;2023-05-11T08:14:54;100871.53;;;20.15;71.48
5812;BME280;2932;52.400;9.558;2023-05-11T08:17:19;100872.75;;;19.99;71.77
5812;BME280;2932;52.400;9.558;2023-05-11T08:19:45;100876.34;;;20.14;71.79
5812;BME280;2932;52.400;9.558;2023-05-11T08:22:10;100863.94;;;20.05;71.67
5812;BME280;2932;52.400;9.558;2023-05-11T08:24:35;100875.56;;;20.03;71.87
5812;BME280;2932;52.400;9.558;2023-05-11T08:27:01;100873.16;;;20.02;71.52
5812;BME280;2932;52.400;9.558;2023-05-11T08:29:26;100875.59;;;19.96;71.29
5812;BME280;2932;52.400;9.558;2023-05-11T08:31:52;100875.59;;;19.92;71.51
5812;BME280;2932;52.400;9.558;2023-05-11T08:34:17;100878.38;;;19.99;71.54
5812;BME280;2932;52.400;9.558;2023-05-11T08:36:43;100873.59;;;19.86;71.47
5812;BME280;2932;52.400;9.558;2023-05-11T08:39:09;100877.22;;;19.93;71.39
5812;BME280;2932;52.400;9.558;2023-05-11T08:41:34;100878.03;;;19.80;71.58
5812;BME280;2932;52.400;9.558;2023-05-11T08:44:01;100878.81;;;19.80;72.01
5812;BME280;2932;52.400;9.558;2023-05-11T08:46:29;100872.41;;;19.76;71.78
5812;BME280;2932;52.400;9.558;2023-05-11T08:48:55;100882.44;;;19.59;71.76
5812;BME280;2932;52.400;9.558;2023-05-11T08:51:22;100877.22;;;19.65;71.83
5812;BME280;2932;52.400;9.558;2023-05-11T08:53:47;100880.44;;;19.67;72.08
5812;BME280;2932;52.400;9.558;2023-05-11T08:56:14;100879.22;;;19.68;72.20
5812;BME280;2932;52.400;9.558;2023-05-11T08:58:40;100876.81;;;19.67;72.40
5812;BME280;2932;52.400;9.558;2023-05-11T09:01:09;100879.63;;;19.67;72.61
5812;BME280;2932;52.400;9.558;2023-05-11T09:03:34;100880.44;;;19.71;72.31
5812;BME280;2932;52.400;9.558;2023-05-11T09:06:04;100878.44;;;19.68;72.59
5812;BME280;2932;52.400;9.558;2023-05-11T09:08:33;100884.84;;;19.79;72.72
5812;BME280;2932;52.400;9.558;2023-05-11T09:10:59;100885.66;;;19.76;72.54
5812;BME280;2932;52.400;9.558;2023-05-11T09:13:25;100879.63;;;19.70;72.88
5812;BME280;2932;52.400;9.558;2023-05-11T09:15:51;100885.25;;;19.59;72.98
5812;BME280;2932;52.400;9.558;2023-05-11T09:18:16;100880.84;;;19.55;73.24
5812;BME280;2932;52.400;9.558;2023-05-11T09:20:43;100877.25;;;19.58;73.25
5812;BME280;2932;52.400;9.558;2023-05-11T09:23:08;100881.22;;;19.43;73.93
5812;BME280;2932;52.400;9.558;2023-05-11T09:25:34;100882.03;;;19.43;73.82
5812;BME280;2932;52.400;9.558;2023-05-11T09:28:03;100876.00;;;19.48;73.20
5812;BME280;2932;52.400;9.558;2023-05-11T09:30:28;100880.03;;;19.69;73.14
5812;BME280;2932;52.400;9.558;2023-05-11T09:32:54;100886.84;;;19.75;72.41
5812;BME280;2932;52.400;9.558;2023-05-11T09:35:30;100880.03;;;19.76;72.26
5812;BME280;2932;52.400;9.558;2023-05-11T09:40:28;100886.44;;;19.80;72.71
5812;BME280;2932;52.400;9.558;2023-05-11T09:42:53;100885.66;;;19.90;72.63
5812;BME280;2932;52.400;9.558;2023-05-11T09:48:01;100879.16;;;20.14;71.56
5812;BME280;2932;52.400;9.558;2023-05-11T09:50:31;100878.34;;;20.21;71.79
5812;BME280;2932;52.400;9.558;2023-05-11T09:52:57;100879.53;;;20.23;71.88
5812;BME280;2932;52.400;9.558;2023-05-11T09:55:23;100877.97;;;20.08;71.55
5812;BME280;2932;52.400;9.558;2023-05-11T09:57:57;100882.00;;;20.04;71.22
5812;BME280;2932;52.400;9.558;2023-05-11T10:00:23;100878.38;;;20.07;72.27
5812;BME280;2932;52.400;9.558;2023-05-11T10:05:27;100881.56;;;20.09;71.63
5812;BME280;2932;52.400;9.558;2023-05-11T10:07:58;100872.72;;;20.17;71.79
5812;BME280;2932;52.400;9.558;2023-05-11T10:10:25;100874.34;;;20.11;72.46
5812;BME280;2932;52.400;9.558;2023-05-11T10:12:52;100873.13;;;20.16;72.94
5812;BME280;2932;52.400;9.558;2023-05-11T10:15:18;100868.66;;;20.43;72.21
5812;BME280;2932;52.400;9.558;2023-05-11T10:17:45;100871.88;;;20.35;72.11
5812;BME280;2932;52.400;9.558;2023-05-11T10:20:11;100868.72;;;20.11;73.09
5812;BME280;2932;52.400;9.558;2023-05-11T10:22:37;100863.00;;;20.54;72.22
5812;BME280;2932;52.400;9.558;2023-05-11T10:25:04;100868.22;;;20.48;71.73
5812;BME280;2932;52.400;9.558;2023-05-11T10:27:33;100870.72;;;20.18;72.46
5812;BME280;2932;52.400;9.558;2023-05-11T10:29:59;100863.91;;;20.08;72.93
5812;BME280;2932;52.400;9.558;2023-05-11T10:32:26;100861.16;;;19.94;72.75
5812;BME280;2932;52.400;9.558;2023-05-11T10:34:52;100865.13;;;20.14;72.63
5812;BME280;2932;52.400;9.558;2023-05-11T10:37:17;100863.91;;;20.19;72.64
5812;BME280;2932;52.400;9.558;2023-05-11T10:39:45;100862.28;;;20.21;72.70
5812;BME280;2932;52.400;9.558;2023-05-11T10:45:45;100861.06;;;20.26;73.00
5812;BME280;2932;52.400;9.558;2023-05-11T10:57:04;100871.53;;;20.18;73.14
5812;BME280;2932;52.400;9.558;2023-05-11T10:59:54;100865.91;;;20.18;72.86
5812;BME280;2932;52.400;9.558;2023-05-11T11:02:33;100861.91;;;20.19;73.30
5812;BME280;2932;52.400;9.558;2023-05-11T11:04:58;100859.47;;;20.25;73.40
5812;BME280;2932;52.400;9.558;2023-05-11T11:07:26;100856.66;;;20.28;72.86
5812;BME280;2932;52.400;9.558;2023-05-11T11:10:01;100858.72;;;19.99;73.86
5812;BME280;2932;52.400;9.558;2023-05-11T11:12:31;100854.75;;;19.97;73.42
5812;BME280;2932;52.400;9.558;2023-05-11T11:15:01;100859.88;;;20.16;73.27
5812;BME280;2932;52.400;9.558;2023-05-11T11:17:31;100859.91;;;20.13;73.44
5812;BME280;2932;52.400;9.558;2023-05-11T11:25:04;100846.31;;;19.93;74.75
5812;BME280;2932;52.400;9.558;2023-05-11T11:32:47;100850.31;;;19.96;73.92
5812;BME280;2932;52.400;9.558;2023-05-11T11:38:16;100858.72;;;20.07;74.33
5812;BME280;2932;52.400;9.558;2023-05-11T11:45:59;100854.34;;;19.81;74.98
5812;BME280;2932;52.400;9.558;2023-05-11T11:51:12;100859.59;;;19.54;76.37
5812;BME280;2932;52.400;9.558;2023-05-11T11:56:07;100857.16;;;19.67;76.06
5812;BME280;2932;52.400;9.558;2023-05-11T12:01:12;100860.38;;;19.69;75.84
5812;BME280;2932;52.400;9.558;2023-05-11T12:03:39;100857.16;;;19.88;76.04
5812;BME280;2932;52.400;9.558;2023-05-11T12:06:09;100858.38;;;19.90;75.88
5812;BME280;2932;52.400;9.558;2023-05-11T12:08:36;100851.53;;;19.98;75.65
5812;BME280;2932;52.400;9.558;2023-05-11T12:11:04;100859.91;;;20.13;75.69
5812;BME280;2932;52.400;9.558;2023-05-11T12:13:31;100862.31;;;20.07;75.55
5812;BME280;2932;52.400;9.558;2023-05-11T12:16:26;100869.59;;;19.87;75.68
5812;BME280;2932;52.400;9.558;2023-05-11T12:18:56;100861.56;;;19.82;75.75
5812;BME280;2932;52.400;9.558;2023-05-11T12:21:24;100859.97;;;19.67;76.18
5812;BME280;2932;52.400;9.558;2023-05-11T12:23:57;100867.19;;;19.50;76.77
5812;BME280;2932;52.400;9.558;2023-05-11T12:26:24;100864.41;;;19.53;76.96
5812;BME280;2932;52.400;9.558;2023-05-11T12:28:51;100867.63;;;19.52;76.94
5812;BME280;2932;52.400;9.558;2023-05-11T12:31:17;100856.38;;;19.62;76.46
5812;BME280;2932;52.400;9.558;2023-05-11T12:33:49;100860.78;;;19.49;76.92
5812;BME280;2932;52.400;9.558;2023-05-11T12:36:16;100864.03;;;19.58;76.50
5812;BME280;2932;52.400;9.558;2023-05-11T12:38:46;100863.97;;;19.44;76.69
5812;BME280;2932;52.400;9.558;2023-05-11T12:41:19;100863.97;;;19.37;76.21
5812;BME280;2932;52.400;9.558;2023-05-11T12:43:51;100860.34;;;19.29;76.58
5812;BME280;2932;52.400;9.558;2023-05-11T12:46:17;100857.16;;;19.31;76.54
5812;BME280;2932;52.400;9.558;2023-05-11T12:48:44;100857.16;;;19.38;76.92
5812;BME280;2932;52.400;9.558;2023-05-11T12:51:10;100853.13;;;19.21;76.99
5812;BME280;2932;52.400;9.558;2023-05-11T12:53:39;100848.75;;;19.17;77.46
5812;BME280;2932;52.400;9.558;2023-05-11T12:56:05;100847.53;;;19.43;77.08
5812;BME280;2932;52.400;9.558;2023-05-11T12:58:37;100845.53;;;19.47;76.80
5812;BME280;2932;52.400;9.558;2023-05-11T13:01:06;100840.31;;;19.63;76.52
5812;BME280;2932;52.400;9.558;2023-05-11T13:03:33;100835.13;;;19.69;76.36
5812;BME280;2932;52.400;9.558;2023-05-11T13:06:10;100836.72;;;19.70;76.31
5812;BME280;2932;52.400;9.558;2023-05-11T13:08:37;100837.50;;;19.84;76.48
5812;BME280;2932;52.400;9.558;2023-05-11T13:11:35;100836.31;;;19.85;76.51
5812;BME280;2932;52.400;9.558;2023-05-11T13:14:14;100835.94;;;19.55;77.40
5812;BME280;2932;52.400;9.558;2023-05-11T13:16:39;100840.31;;;19.70;76.63
5812;BME280;2932;52.400;9.558;2023-05-11T13:19:06;100829.09;;;19.70;76.73
5812;BME280;2932;52.400;9.558;2023-05-11T13:21:32;100828.31;;;19.62;77.07
5812;BME280;2932;52.400;9.558;2023-05-11T13:23:58;100827.47;;;19.80;76.96
5812;BME280;2932;52.400;9.558;2023-05-11T13:26:25;100824.28;;;19.67;76.72
5812;BME280;2932;52.400;9.558;2023-05-11T13:28:53;100823.53;;;19.52;77.85
5812;BME280;2932;52.400;9.558;2023-05-11T13:31:19;100824.28;;;19.67;78.39
5812;BME280;2932;52.400;9.558;2023-05-11T13:33:51;100822.28;;;19.71;77.76
5812;BME280;2932;52.400;9.558;2023-05-11T13:36:17;100819.84;;;19.84;78.05
5812;BME280;2932;52.400;9.558;2023-05-11T13:38:42;100825.88;;;19.86;77.57
5812;BME280;2932;52.400;9.558;2023-05-11T13:41:08;100825.47;;;19.84;76.91
5812;BME280;2932;52.400;9.558;2023-05-11T13:43:34;100814.25;;;19.73;77.36
5812;BME280;2932;52.400;9.558;2023-05-11T13:45:59;100822.25;;;19.89;77.08
5812;BME280;2932;52.400;9.558;2023-05-11T13:48:25;100818.63;;;19.99;77.35
5812;BME280;2932;52.400;9.558;2023-05-11T13:50:50;100819.41;;;19.99;76.82
5812;BME280;2932;52.400;9.558;2023-05-11T13:53:16;100823.38;;;20.13;76.56
5812;BME280;2932;52.400;9.558;2023-05-11T13:55:42;100817.75;;;20.16;76.75
5812;BME280;2932;52.400;9.558;2023-05-11T13:58:11;100816.97;;;20.09;76.51
5812;BME280;2932;52.400;9.558;2023-05-11T14:00:39;100812.09;;;20.23;76.23
5812;BME280;2932;52.400;9.558;2023-05-11T14:03:05;100820.66;;;19.88;76.76
5812;BME280;2932;52.400;9.558;2023-05-11T14:05:30;100811.84;;;19.86;77.75